createdAt,value
2023-09-11T00:01:23.362Z,101162.13
2023-09-11T00:03:50.878Z,101155.94
2023-09-11T00:06:17.544Z,101155.47
2023-09-11T00:08:44.291Z,101152.47
2023-09-11T00:11:10.951Z,101155.66
2023-09-11T00:13:37.442Z,101161.19
2023-09-11T00:16:03.972Z,101148.84
2023-09-11T00:18:30.514Z,101150.34
2023-09-11T00:20:57.025Z,101149.38
2023-09-11T00:23:23.589Z,101146.38
2023-09-11T00:25:50.148Z,101141.72
2023-09-11T00:28:16.604Z,101138.69
2023-09-11T00:30:43.199Z,101140.22
2023-09-11T00:33:09.881Z,101134.88
2023-09-11T00:35:36.913Z,101130.72
2023-09-11T00:38:03.579Z,101137.91
2023-09-11T00:40:30.086Z,101129.56
2023-09-11T00:42:56.538Z,101128.59
2023-09-11T00:45:22.971Z,101126.75
2023-09-11T00:47:50.308Z,101126.59
2023-09-11T00:50:18.509Z,101125.28
2023-09-11T00:52:45.675Z,101130.44
2023-09-11T00:55:12.933Z,101118.94
2023-09-11T00:57:39.815Z,101124.94
2023-09-11T01:00:07.160Z,101116.28
2023-09-11T01:02:34.711Z,101121.44
2023-09-11T01:05:01.679Z,101120.94
2023-09-11T01:07:28.296Z,101112.25
2023-09-11T01:09:55.141Z,101112.94
2023-09-11T01:12:21.629Z,101105.41
2023-09-11T01:14:48.245Z,101113.78
2023-09-11T01:17:25.456Z,101112.44
2023-09-11T01:20:22.502Z,101104.59
2023-09-11T01:23:21.154Z,101104.44
2023-09-11T01:26:06.727Z,101106.28
2023-09-11T01:28:43.726Z,101105.75
2023-09-11T01:31:10.978Z,101098.44
2023-09-11T01:33:37.903Z,101099.94
2023-09-11T01:36:04.517Z,101095.78
2023-09-11T01:38:31.063Z,101091.94
2023-09-11T01:41:00.432Z,101093.78
2023-09-11T01:43:32.902Z,101100.13
2023-09-11T01:46:02.298Z,101088.25
2023-09-11T01:48:32.147Z,101089.75
2023-09-11T01:50:59.608Z,101087.59
2023-09-11T01:53:27.856Z,101076.59
2023-09-11T01:55:56.644Z,101080.94
2023-09-11T01:58:23.154Z,101088.13
2023-09-11T02:00:49.630Z,101072.59
2023-09-11T02:03:17.816Z,101076.94
2023-09-11T02:05:44.509Z,101078.78
2023-09-11T02:08:11.071Z,101074.09
2023-09-11T02:10:37.542Z,101079.59
2023-09-11T02:13:04.078Z,101081.09
2023-09-11T02:15:30.565Z,101076.94
2023-09-11T02:17:57.138Z,101077.59
2023-09-11T02:20:23.702Z,101070.59
2023-09-11T02:22:50.180Z,101070.09
2023-09-11T02:25:16.670Z,101074.09
2023-09-11T02:27:43.103Z,101069.88
2023-09-11T02:30:09.694Z,101064.38
2023-09-11T02:32:36.263Z,101071.53
2023-09-11T02:35:02.832Z,101068.84
2023-09-11T02:37:29.334Z,101070.88
2023-09-11T02:39:55.835Z,101075.19
2023-09-11T02:42:22.286Z,101075.84
2023-09-11T02:44:48.820Z,101069.66
2023-09-11T02:47:15.268Z,101067.81
2023-09-11T02:49:41.799Z,101065.66
2023-09-11T02:52:08.485Z,101068.84
2023-09-11T02:54:35.116Z,101065.81
2023-09-11T02:57:01.982Z,101067.28
2023-09-11T02:59:28.560Z,101074.97
2023-09-11T03:01:55.182Z,101067.94
2023-09-11T03:04:21.654Z,101074.78
2023-09-11T03:06:48.158Z,101077.13
2023-09-11T03:09:15.009Z,101078.59
2023-09-11T03:11:41.623Z,101068.06
2023-09-11T03:14:08.287Z,101075.75
2023-09-11T03:16:34.827Z,101074.91
2023-09-11T03:19:01.281Z,101073.75
2023-09-11T03:21:28.664Z,101070.75
2023-09-11T03:23:55.232Z,101071.91
2023-09-11T03:26:21.761Z,101074.75
2023-09-11T03:28:52.371Z,101077.06
2023-09-11T03:31:23.420Z,101067.75
2023-09-11T03:33:50.294Z,101066.38
2023-09-11T03:36:18.430Z,101070.38
2023-09-11T03:38:45.544Z,101067.06
2023-09-11T03:41:12.235Z,101065.72
2023-09-11T03:43:39.077Z,101063.69
2023-09-11T03:46:06.256Z,101067.72
2023-09-11T03:48:33.908Z,101057.88
2023-09-11T03:51:01.180Z,101059.84
2023-09-11T03:53:27.952Z,101059.34
2023-09-11T03:55:54.489Z,101060.84
2023-09-11T03:58:21.105Z,101060.63
2023-09-11T04:00:47.668Z,101062.47
2023-09-11T04:03:14.995Z,101062.59
2023-09-11T04:05:41.765Z,101058.78
2023-09-11T04:08:08.270Z,101058.88
2023-09-11T04:10:34.713Z,101057.00
2023-09-11T04:13:01.198Z,101056.50
2023-09-11T04:15:27.685Z,101054.84
2023-09-11T04:17:58.597Z,101052.00
2023-09-11T04:20:25.589Z,101059.66
2023-09-11T04:22:52.972Z,101047.31
2023-09-11T04:25:19.473Z,101042.81
2023-09-11T04:27:45.975Z,101045.13
2023-09-11T04:30:12.752Z,101047.78
2023-09-11T04:32:39.342Z,101046.56
2023-09-11T04:35:08.530Z,101046.06
2023-09-11T04:37:35.321Z,101045.56
2023-09-11T04:40:01.927Z,101046.69
2023-09-11T04:42:28.777Z,101038.56
2023-09-11T04:45:00.100Z,101040.88
2023-09-11T04:47:32.585Z,101053.13
2023-09-11T04:50:00.361Z,101055.97
2023-09-11T04:52:27.009Z,101056.31
2023-09-11T04:54:54.426Z,101047.00
2023-09-11T04:57:21.102Z,101051.28
2023-09-11T04:59:47.628Z,101050.78
2023-09-11T05:02:14.107Z,101052.25
2023-09-11T05:04:40.669Z,101045.75
2023-09-11T05:07:07.320Z,101044.94
2023-09-11T05:09:34.046Z,101048.91
2023-09-11T05:12:01.207Z,101045.75
2023-09-11T05:14:27.853Z,101046.59
2023-09-11T05:16:54.332Z,101044.59
2023-09-11T05:19:21.375Z,101052.56
2023-09-11T05:21:47.866Z,101059.91
2023-09-11T05:24:14.313Z,101045.75
2023-09-11T05:26:40.834Z,101052.25
2023-09-11T05:29:07.299Z,101052.25
2023-09-11T05:31:33.788Z,101050.25
2023-09-11T05:34:00.486Z,101055.06
2023-09-11T05:36:27.059Z,101052.78
2023-09-11T05:38:53.599Z,101055.06
2023-09-11T05:41:21.590Z,101051.09
2023-09-11T05:43:48.078Z,101050.25
2023-09-11T05:46:14.555Z,101055.06
2023-09-11T05:48:41.241Z,101048.25
2023-09-11T05:51:08.032Z,101050.97
2023-09-11T05:53:35.860Z,101047.47
2023-09-11T05:56:02.684Z,101053.66
2023-09-11T05:58:29.146Z,101051.34
2023-09-11T06:00:55.699Z,101052.19
2023-09-11T06:03:22.316Z,101052.69
2023-09-11T06:05:49.004Z,101058.53
2023-09-11T06:08:16.275Z,101051.41
2023-09-11T06:10:42.836Z,101056.91
2023-09-11T06:13:09.276Z,101050.28
2023-09-11T06:15:35.773Z,101054.66
2023-09-11T06:18:02.347Z,101059.31
2023-09-11T06:20:29.195Z,101056.88
2023-09-11T06:22:56.857Z,101066.09
2023-09-11T06:25:23.524Z,101063.63
2023-09-11T06:27:50.416Z,101061.50
2023-09-11T06:30:16.936Z,101064.34
2023-09-11T06:32:43.660Z,101059.03
2023-09-11T06:35:11.089Z,101056.28
2023-09-11T06:37:38.370Z,101050.78
2023-09-11T06:40:09.027Z,101054.97
2023-09-11T06:42:36.289Z,101051.19
2023-09-11T06:45:03.963Z,101045.22
2023-09-11T06:47:30.594Z,101050.75
2023-09-11T06:49:57.407Z,101050.59
2023-09-11T06:52:23.903Z,101050.41
2023-09-11T06:54:50.486Z,101056.75
2023-09-11T06:57:17.056Z,101046.34
2023-09-11T06:59:43.553Z,101055.69
2023-09-11T07:02:10.034Z,101043.84
2023-09-11T07:04:36.618Z,101044.78
2023-09-11T07:07:03.234Z,101044.38
2023-09-11T07:09:29.746Z,101036.13
2023-09-11T07:11:57.362Z,101037.53
2023-09-11T07:14:24.626Z,101042.47
2023-09-11T07:16:51.084Z,101036.22
2023-09-11T07:19:17.662Z,101035.97
2023-09-11T07:21:45.729Z,101036.38
2023-09-11T07:24:13.172Z,101040.25
2023-09-11T07:26:40.110Z,101038.78
2023-09-11T07:29:06.643Z,101041.47
2023-09-11T07:31:33.771Z,101040.84
2023-09-11T07:34:00.714Z,101042.66
2023-09-11T07:36:28.857Z,101042.59
2023-09-11T07:38:55.458Z,101039.41
2023-09-11T07:41:22.081Z,101037.75
2023-09-11T07:43:51.667Z,101042.03
2023-09-11T07:46:22.904Z,101039.09
2023-09-11T07:48:50.694Z,101039.56
2023-09-11T07:51:17.336Z,101037.88
2023-09-11T07:53:45.469Z,101035.69
2023-09-11T07:56:12.879Z,101038.41
2023-09-11T07:58:40.284Z,101043.97
2023-09-11T08:01:07.031Z,101043.81
2023-09-11T08:03:34.377Z,101039.16
2023-09-11T08:06:01.637Z,101041.59
2023-09-11T08:08:28.749Z,101034.56
2023-09-11T08:10:56.935Z,101034.84
2023-09-11T08:13:25.194Z,101024.09
2023-09-11T08:15:52.152Z,101023.16
2023-09-11T08:18:18.804Z,101028.00
2023-09-11T08:20:46.961Z,101027.44
2023-09-11T08:23:13.512Z,101032.72
2023-09-11T08:25:39.969Z,101025.78
2023-09-11T08:28:06.871Z,101028.38
2023-09-11T08:30:33.355Z,101022.34
2023-09-11T08:32:59.980Z,101022.63
2023-09-11T08:35:26.630Z,101019.91
2023-09-11T08:37:53.152Z,101019.38
2023-09-11T08:40:21.666Z,101022.66
2023-09-11T08:42:48.108Z,101024.81
2023-09-11T08:45:14.594Z,101023.41
2023-09-11T08:47:43.323Z,101019.50
2023-09-11T08:50:10.694Z,101027.69
2023-09-11T08:52:38.930Z,101027.94
2023-09-11T08:55:10.122Z,101030.13
2023-09-11T08:57:39.959Z,101023.78
2023-09-11T09:00:12.785Z,101025.75
2023-09-11T09:02:40.332Z,101023.28
2023-09-11T09:05:07.920Z,101023.84
2023-09-11T09:07:34.955Z,101019.25
2023-09-11T09:10:04.067Z,101014.31
2023-09-11T09:12:30.630Z,101014.91
2023-09-11T09:14:58.047Z,101018.81
2023-09-11T09:17:24.547Z,101015.34
2023-09-11T09:19:50.993Z,101010.63
2023-09-11T09:22:17.677Z,101015.31
2023-09-11T09:24:54.882Z,101015.41
2023-09-11T09:27:28.246Z,101012.38
2023-09-11T09:29:55.395Z,101007.13
2023-09-11T09:32:22.143Z,101001.00
2023-09-11T09:34:54.888Z,101004.72
2023-09-11T09:37:22.894Z,101006.94
2023-09-11T09:39:50.035Z,100993.94
2023-09-11T09:42:17.192Z,100993.81
2023-09-11T09:44:48.786Z,100995.06
2023-09-11T09:47:20.368Z,100990.19
2023-09-11T09:49:53.596Z,100982.41
2023-09-11T09:52:22.704Z,100978.13
2023-09-11T09:54:55.981Z,100971.22
2023-09-11T09:57:24.736Z,100980.00
2023-09-11T09:59:55.038Z,100979.31
2023-09-11T10:02:29.329Z,100967.44
2023-09-11T10:04:58.843Z,100963.31
2023-09-11T10:07:40.412Z,100960.97
2023-09-11T10:10:23.520Z,100956.56
2023-09-11T10:13:05.425Z,100952.50
2023-09-11T10:15:33.654Z,100944.66
2023-09-11T10:18:01.526Z,100946.88
2023-09-11T10:20:28.358Z,100944.41
2023-09-11T10:22:56.447Z,100937.38
2023-09-11T10:25:23.581Z,100942.25
2023-09-11T10:27:53.279Z,100933.91
2023-09-11T10:30:22.738Z,100937.81
2023-09-11T10:32:58.669Z,100933.31
2023-09-11T10:35:28.181Z,100926.41
2023-09-11T10:37:58.820Z,100937.91
2023-09-11T10:40:29.516Z,100927.25
2023-09-11T10:42:56.249Z,100921.50
2023-09-11T10:45:29.925Z,100923.09
2023-09-11T10:47:56.879Z,100927.66
2023-09-11T10:50:39.759Z,100923.19
2023-09-11T10:53:07.048Z,100922.81
2023-09-11T10:55:33.745Z,100918.75
2023-09-11T10:58:04.195Z,100906.81
2023-09-11T11:00:30.637Z,100908.47
2023-09-11T11:02:58.496Z,100901.91
2023-09-11T11:05:27.224Z,100897.78
2023-09-11T11:07:53.784Z,100899.84
2023-09-11T11:10:20.892Z,100895.25
2023-09-11T11:12:47.565Z,100896.94
2023-09-11T11:15:25.810Z,100890.75
2023-09-11T11:18:12.642Z,100892.00
2023-09-11T11:21:06.307Z,100893.22
2023-09-11T11:23:55.357Z,100889.53
2023-09-11T11:26:24.921Z,100887.88
2023-09-11T11:28:52.150Z,100888.72
2023-09-11T11:31:21.383Z,100882.13
2023-09-11T11:33:50.060Z,100885.41
2023-09-11T11:36:18.419Z,100889.47
2023-09-11T11:38:45.626Z,100882.47
2023-09-11T11:41:13.303Z,100878.72
2023-09-11T11:43:43.342Z,100881.22
2023-09-11T11:46:11.494Z,100871.34
2023-09-11T11:48:38.951Z,100879.59
2023-09-11T11:51:05.927Z,100879.19
2023-09-11T11:53:33.549Z,100876.72
2023-09-11T11:56:02.177Z,100873.84
2023-09-11T11:58:28.683Z,100867.69
2023-09-11T12:01:06.575Z,100869.72
2023-09-11T12:03:34.861Z,100873.78
2023-09-11T12:06:02.717Z,100874.56
2023-09-11T12:08:29.485Z,100867.13
2023-09-11T12:10:56.006Z,100864.22
2023-09-11T12:13:38.646Z,100866.28
2023-09-11T12:16:06.125Z,100874.00
2023-09-11T12:18:37.347Z,100866.06
2023-09-11T12:21:08.855Z,100869.41
2023-09-11T12:23:35.513Z,100869.75
2023-09-11T12:26:05.569Z,100877.06
2023-09-11T12:28:33.740Z,100876.22
2023-09-11T12:31:00.618Z,100867.47
2023-09-11T12:33:32.790Z,100867.44
2023-09-11T12:35:59.589Z,100864.97
2023-09-11T12:38:27.357Z,100868.59
2023-09-11T12:40:56.324Z,100867.09
2023-09-11T12:43:25.856Z,100858.00
2023-09-11T12:45:52.365Z,100855.41
2023-09-11T12:48:19.122Z,100852.97
2023-09-11T12:50:45.892Z,100848.03
2023-09-11T12:53:12.499Z,100851.53
2023-09-11T12:55:39.034Z,100845.44
2023-09-11T12:58:05.655Z,100839.78
2023-09-11T13:00:34.150Z,100833.19
2023-09-11T13:03:02.347Z,100834.88
2023-09-11T13:05:30.172Z,100840.03
2023-09-11T13:07:57.953Z,100835.16
2023-09-11T13:10:25.120Z,100835.88
2023-09-11T13:12:51.563Z,100835.47
2023-09-11T13:15:18.629Z,100826.41
2023-09-11T13:17:45.757Z,100828.97
2023-09-11T13:20:12.668Z,100824.03
2023-09-11T13:22:43.272Z,100825.16
2023-09-11T13:25:12.712Z,100823.13
2023-09-11T13:27:40.572Z,100824.00
2023-09-11T13:30:08.710Z,100816.47
2023-09-11T13:32:38.392Z,100819.63
2023-09-11T13:35:06.868Z,100825.34
2023-09-11T13:37:33.987Z,100815.06
2023-09-11T13:40:00.438Z,100807.72
2023-09-11T13:42:27.030Z,100807.44
2023-09-11T13:44:54.932Z,100808.28
2023-09-11T13:47:21.506Z,100812.84
2023-09-11T13:49:47.972Z,100802.06
2023-09-11T13:52:15.778Z,100798.41
2023-09-11T13:54:45.505Z,100795.03
2023-09-11T13:57:15.092Z,100799.13
2023-09-11T13:59:41.768Z,100799.16
2023-09-11T14:02:08.314Z,100807.41
2023-09-11T14:04:36.338Z,100807.38
2023-09-11T14:07:04.402Z,100805.66
2023-09-11T14:09:31.594Z,100796.44
2023-09-11T14:11:59.319Z,100792.72
2023-09-11T14:14:25.896Z,100795.53
2023-09-11T14:16:52.355Z,100793.00
2023-09-11T14:19:18.951Z,100797.41
2023-09-11T14:21:45.407Z,100787.78
2023-09-11T14:24:11.865Z,100777.91
2023-09-11T14:26:38.852Z,100782.88
2023-09-11T14:29:05.342Z,100777.91
2023-09-11T14:31:32.898Z,100774.63
2023-09-11T14:33:59.373Z,100777.41
2023-09-11T14:36:25.840Z,100774.69
2023-09-11T14:38:52.972Z,100771.94
2023-09-11T14:41:19.465Z,100776.56
2023-09-11T14:43:45.909Z,100778.28
2023-09-11T14:46:12.415Z,100770.50
2023-09-11T14:48:39.078Z,100764.06
2023-09-11T14:51:05.800Z,100757.31
2023-09-11T14:53:40.459Z,100763.28
2023-09-11T14:56:07.247Z,100764.13
2023-09-11T14:58:33.721Z,100761.31
2023-09-11T15:01:00.219Z,100758.13
2023-09-11T15:03:26.823Z,100754.47
2023-09-11T15:05:53.450Z,100752.84
2023-09-11T15:08:20.204Z,100758.66
2023-09-11T15:10:48.595Z,100752.84
2023-09-11T15:13:15.508Z,100756.22
2023-09-11T15:15:43.524Z,100756.63
2023-09-11T15:18:13.450Z,100759.03
2023-09-11T15:20:40.009Z,100752.91
2023-09-11T15:23:06.972Z,100747.63
2023-09-11T15:25:34.353Z,100748.53
2023-09-11T15:28:00.936Z,100742.34
2023-09-11T15:30:27.459Z,100741.13
2023-09-11T15:32:57.027Z,100740.28
2023-09-11T15:35:23.732Z,100741.97
2023-09-11T15:37:50.468Z,100751.09
2023-09-11T15:40:16.949Z,100752.81
2023-09-11T15:42:43.430Z,100744.97
2023-09-11T15:45:10.136Z,100745.41
2023-09-11T15:47:36.681Z,100746.63
2023-09-11T15:50:04.117Z,100750.78
2023-09-11T15:52:30.559Z,100744.22
2023-09-11T15:54:57.010Z,100742.19
2023-09-11T15:57:23.561Z,100748.84
2023-09-11T15:59:50.144Z,100746.38
2023-09-11T16:02:16.696Z,100745.16
2023-09-11T16:04:45.641Z,100743.13
2023-09-11T16:07:12.196Z,100744.78
2023-09-11T16:09:38.648Z,100753.47
2023-09-11T16:12:06.048Z,100753.09
2023-09-11T16:14:32.600Z,100749.81
2023-09-11T16:17:00.811Z,100740.28
2023-09-11T16:19:27.290Z,100747.31
2023-09-11T16:21:53.810Z,100735.34
2023-09-11T16:24:20.384Z,100747.31
2023-09-11T16:26:47.000Z,100732.88
2023-09-11T16:29:14.634Z,100747.31
2023-09-11T16:31:42.094Z,100746.50
2023-09-11T16:34:11.391Z,100739.97
2023-09-11T16:36:37.934Z,100742.50
2023-09-11T16:39:04.415Z,100735.56
2023-09-11T16:41:30.927Z,100732.31
2023-09-11T16:43:57.532Z,100730.28
2023-09-11T16:46:24.440Z,100734.06
2023-09-11T16:48:50.941Z,100735.28
2023-09-11T16:51:17.470Z,100742.72
2023-09-11T16:53:44.032Z,100741.53
2023-09-11T16:56:10.597Z,100732.44
2023-09-11T16:58:37.087Z,100742.38
2023-09-11T17:01:07.931Z,100746.94
2023-09-11T17:03:34.644Z,100749.44
2023-09-11T17:06:01.217Z,100742.03
2023-09-11T17:08:27.814Z,100751.94
2023-09-11T17:10:54.406Z,100747.41
2023-09-11T17:13:21.177Z,100749.47
2023-09-11T17:15:47.838Z,100743.72
2023-09-11T17:18:14.604Z,100742.09
2023-09-11T17:20:42.162Z,100737.97
2023-09-11T17:23:09.080Z,100740.88
2023-09-11T17:25:36.032Z,100747.03
2023-09-11T17:28:02.695Z,100741.28
2023-09-11T17:30:30.110Z,100743.34
2023-09-11T17:32:56.676Z,100735.50
2023-09-11T17:35:23.340Z,100739.19
2023-09-11T17:37:49.805Z,100742.88
2023-09-11T17:40:16.656Z,100744.09
2023-09-11T17:42:43.134Z,100749.41
2023-09-11T17:45:10.057Z,100746.94
2023-09-11T17:47:38.936Z,100755.09
2023-09-11T17:50:06.393Z,100756.72
2023-09-11T17:52:32.970Z,100759.19
2023-09-11T17:54:59.485Z,100759.56
2023-09-11T17:57:26.075Z,100763.63
2023-09-11T17:59:52.647Z,100757.47
2023-09-11T18:02:19.259Z,100761.53
2023-09-11T18:04:45.879Z,100770.97
2023-09-11T18:07:12.776Z,100772.16
2023-09-11T18:09:39.279Z,100767.22
2023-09-11T18:12:06.191Z,100769.66
2023-09-11T18:14:32.651Z,100769.19
2023-09-11T18:16:59.147Z,100774.47
2023-09-11T18:19:25.590Z,100771.97
2023-09-11T18:21:52.047Z,100776.84
2023-09-11T18:24:18.657Z,100778.06
2023-09-11T18:26:45.140Z,100787.06
2023-09-11T18:29:16.017Z,100781.25
2023-09-11T18:31:42.929Z,100786.53
2023-09-11T18:34:10.703Z,100789.78
2023-09-11T18:36:38.347Z,100782.34
2023-09-11T18:39:05.799Z,100782.66
2023-09-11T18:41:32.507Z,100785.06
2023-09-11T18:43:58.976Z,100782.56
2023-09-11T18:46:25.920Z,100779.22
2023-09-11T18:48:52.969Z,100786.91
2023-09-11T18:51:19.853Z,100781.56
2023-09-11T18:53:46.348Z,100786.00
2023-09-11T18:56:12.824Z,100793.31
2023-09-11T18:58:39.554Z,100780.94
2023-09-11T19:01:06.464Z,100790.69
2023-09-11T19:03:33.954Z,100790.97
2023-09-11T19:06:00.578Z,100793.75
2023-09-11T19:08:27.606Z,100797.34
2023-09-11T19:10:54.250Z,100797.69
2023-09-11T19:13:20.805Z,100797.66
2023-09-11T19:15:49.136Z,100794.75
2023-09-11T19:18:17.137Z,100796.25
2023-09-11T19:20:43.769Z,100796.22
2023-09-11T19:23:10.224Z,100795.28
2023-09-11T19:25:36.762Z,100791.94
2023-09-11T19:28:03.426Z,100793.50
2023-09-11T19:30:35.403Z,100787.25
2023-09-11T19:33:01.930Z,100784.31
2023-09-11T19:35:28.481Z,100781.38
2023-09-11T19:37:54.990Z,100781.72
2023-09-11T19:40:21.454Z,100782.47
2023-09-11T19:42:47.907Z,100780.25
2023-09-11T19:45:14.555Z,100783.03
2023-09-11T19:47:41.066Z,100789.06
2023-09-11T19:50:08.267Z,100783.66
2023-09-11T19:52:34.741Z,100782.41
2023-09-11T19:55:01.305Z,100780.31
2023-09-11T19:57:34.017Z,100779.81
2023-09-11T20:00:00.623Z,100778.47
2023-09-11T20:02:27.411Z,100776.69
2023-09-11T20:04:54.013Z,100779.34
2023-09-11T20:07:20.758Z,100786.16
2023-09-11T20:09:47.254Z,100777.44
2023-09-11T20:12:13.751Z,100774.09
2023-09-11T20:14:40.352Z,100777.38
2023-09-11T20:17:07.943Z,100772.41
2023-09-11T20:19:34.472Z,100776.47
2023-09-11T20:22:01.021Z,100769.03
2023-09-11T20:24:27.560Z,100772.97
2023-09-11T20:26:54.191Z,100772.75
2023-09-11T20:29:21.847Z,100771.84
2023-09-11T20:31:48.312Z,100769.00
2023-09-11T20:34:14.852Z,100770.22
2023-09-11T20:36:42.790Z,100772.97
2023-09-11T20:39:09.377Z,100772.47
2023-09-11T20:41:35.871Z,100773.13
2023-09-11T20:44:03.924Z,100762.00
2023-09-11T20:46:31.113Z,100772.16
2023-09-11T20:48:57.698Z,100769.22
2023-09-11T20:51:24.225Z,100771.56
2023-09-11T20:53:50.695Z,100764.94
2023-09-11T20:56:17.394Z,100774.25
2023-09-11T20:58:45.382Z,100777.44
2023-09-11T21:01:11.927Z,100778.09
2023-09-11T21:03:38.823Z,100777.56
2023-09-11T21:06:06.084Z,100776.22
2023-09-11T21:08:32.610Z,100779.81
2023-09-11T21:10:59.596Z,100771.19
2023-09-11T21:13:26.857Z,100762.13
2023-09-11T21:15:53.560Z,100770.25
2023-09-11T21:18:22.108Z,100770.63
2023-09-11T21:20:49.223Z,100770.44
2023-09-11T21:23:15.830Z,100775.59
2023-09-11T21:25:42.337Z,100775.44
2023-09-11T21:28:08.776Z,100764.69
2023-09-11T21:30:35.347Z,100772.31
2023-09-11T21:33:01.977Z,100776.66
2023-09-11T21:35:29.603Z,100770.13
2023-09-11T21:37:56.170Z,100769.66
2023-09-11T21:40:22.672Z,100769.19
2023-09-11T21:42:49.116Z,100769.50
2023-09-11T21:45:15.869Z,100766.47
2023-09-11T21:47:42.415Z,100766.75
2023-09-11T21:50:09.125Z,100770.72
2023-09-11T21:52:35.554Z,100766.94
2023-09-11T21:55:02.114Z,100776.69
2023-09-11T21:57:28.679Z,100769.69
2023-09-11T21:59:55.177Z,100771.97
2023-09-11T22:02:21.678Z,100771.84
2023-09-11T22:04:51.810Z,100771.31
2023-09-11T22:07:18.319Z,100764.22
2023-09-11T22:09:44.782Z,100764.50
2023-09-11T22:12:13.121Z,100767.25
2023-09-11T22:14:40.072Z,100765.16
2023-09-11T22:17:06.592Z,100761.00
2023-09-11T22:19:33.121Z,100763.84
2023-09-11T22:21:59.568Z,100763.38
2023-09-11T22:24:26.045Z,100766.50
2023-09-11T22:26:52.825Z,100759.69
2023-09-11T22:29:20.580Z,100759.13
2023-09-11T22:31:47.383Z,100751.28
2023-09-11T22:34:13.905Z,100759.03
2023-09-11T22:36:40.455Z,100751.19
2023-09-11T22:39:06.971Z,100748.69
2023-09-11T22:41:33.505Z,100755.97
2023-09-11T22:44:00.007Z,100752.66
2023-09-11T22:46:26.513Z,100751.72
2023-09-11T22:48:53.047Z,100752.81
2023-09-11T22:51:19.636Z,100746.16
2023-09-11T22:53:46.185Z,100752.09
2023-09-11T22:56:12.639Z,100750.00
2023-09-11T22:58:39.089Z,100754.38
2023-09-11T23:01:21.130Z,100745.38
2023-09-11T23:03:52.066Z,100752.28
2023-09-11T23:06:18.597Z,100756.66
2023-09-11T23:08:45.151Z,100751.22
2023-09-11T23:11:11.722Z,100751.94
2023-09-11T23:13:38.223Z,100755.88
2023-09-11T23:16:04.900Z,100762.28
2023-09-11T23:18:31.496Z,100755.66
2023-09-11T23:20:58.021Z,100754.38
2023-09-11T23:23:35.219Z,100755.91
2023-09-11T23:26:01.672Z,100755.81
2023-09-11T23:28:28.386Z,100750.81
2023-09-11T23:30:59.186Z,100753.94
2023-09-11T23:33:26.184Z,100750.97
2023-09-11T23:35:53.092Z,100750.84
2023-09-11T23:38:19.583Z,100761.66
2023-09-11T23:40:46.042Z,100753.84
2023-09-11T23:43:12.652Z,100753.03
2023-09-11T23:45:39.191Z,100757.41
2023-09-11T23:48:05.990Z,100751.22
2023-09-11T23:50:32.497Z,100754.81
2023-09-11T23:53:00.132Z,100754.66
2023-09-11T23:55:26.940Z,100759.38
2023-09-11T23:57:53.381Z,100751.09
